This is the latest recevied weather packets stored in our database for station/object LRCL. If no packets are shown the sender has not sent any weather packets the latest 10 day(s).
| Time | Temp. | Humidity | Pressure | Rain* | Wind** | Luminosity | Snow |
|---|---|---|---|---|---|---|---|
| 1777658611 | 8.89° C | 46% | 1023 hPa | - | - | - | - |
| 1777657688 | 11.11° C | 41% | 1023 hPa | - | - | - | - |
| 1777656788 | 11.11° C | 41% | 1023 hPa | - | - | - | - |
| 1777655913 | 12.78° C | 33% | 1023 hPa | - | - | - | - |
| 1777654988 | 12.78° C | 33% | 1023 hPa | - | - | - | - |
| 1777654088 | 13.89° C | 31% | 1023 hPa | - | - | - | - |
| 1777653188 | 13.89° C | 31% | 1023 hPa | - | - | - | - |
| 1777652288 | 13.89° C | 29% | 1023 hPa | - | - | - | - |
| 1777651388 | 13.89° C | 29% | 1023 hPa | - | - | - | - |
| 1777650488 | 15° C | 29% | 1023 hPa | - | - | - | - |
| 1777649588 | 15° C | 29% | 1023 hPa | - | - | - | - |
| 1777648689 | 13.89° C | 29% | 1023 hPa | - | - | - | - |
| 1777647788 | 13.89° C | 29% | 1023 hPa | - | - | - | - |
| 1777646926 | 13.89° C | 29% | 1023 hPa | - | - | - | - |
| 1777646063 | 13.89° C | 29% | 1023 hPa | - | - | - | - |
| 1777645088 | 13.89° C | 29% | 1023 hPa | - | - | - | - |
| 1777644188 | 13.89° C | 29% | 1023 hPa | - | - | - | - |
| 1777643288 | 13.89° C | 27% | 1023 hPa | - | - | - | - |
| 1777642388 | 13.89° C | 27% | 1023 hPa | - | - | - | - |
| 1777641489 | 13.89° C | 31% | 1024 hPa | - | - | - | - |
| 1777640588 | 13.89° C | 31% | 1024 hPa | - | - | - | - |
| 1777639688 | 13.89° C | 31% | 1024 hPa | - | - | - | - |
| 1777638788 | 13.89° C | 31% | 1024 hPa | - | - | - | - |
| 1777637903 | 12.78° C | 33% | 1024 hPa | - | - | - | - |
| 1777636989 | 12.78° C | 33% | 1024 hPa | - | - | - | - |
* Rain since midnight (hover to see other rain measurements)
** Current wind speed in m/s (hover to see current wind gust speed)